createdAt,value
2022-12-12T00:00:12.770Z,58.84
2022-12-12T00:02:40.231Z,60.80
2022-12-12T00:05:08.139Z,59.08
2022-12-12T00:07:35.702Z,58.51
2022-12-12T00:10:02.889Z,57.37
2022-12-12T00:12:30.301Z,58.07
2022-12-12T00:14:57.466Z,57.84
2022-12-12T00:17:24.582Z,56.07
2022-12-12T00:19:52.072Z,56.73
2022-12-12T00:22:19.231Z,57.91
2022-12-12T00:24:46.684Z,56.14
2022-12-12T00:27:23.286Z,56.56
2022-12-12T00:29:54.227Z,57.03
2022-12-12T00:32:21.411Z,58.00
2022-12-12T00:34:49.724Z,56.81
2022-12-12T00:37:16.855Z,55.57
2022-12-12T00:39:43.972Z,55.47
2022-12-12T00:42:11.375Z,58.84
2022-12-12T00:44:38.501Z,56.17
2022-12-12T00:47:05.637Z,55.34
2022-12-12T00:49:33.071Z,55.06
2022-12-12T00:52:00.210Z,52.40
2022-12-12T00:54:27.316Z,53.10
2022-12-12T00:56:54.746Z,54.03
2022-12-12T00:59:22.131Z,53.22
2022-12-12T01:01:49.311Z,55.37
2022-12-12T01:04:16.760Z,54.31
2022-12-12T01:06:43.960Z,53.73
2022-12-12T01:09:11.076Z,53.29
2022-12-12T01:11:39.786Z,53.12
2022-12-12T01:14:07.408Z,52.84
2022-12-12T01:16:37.202Z,54.41
2022-12-12T01:19:04.860Z,56.27
2022-12-12T01:21:31.997Z,54.75
2022-12-12T01:23:59.120Z,54.97
2022-12-12T01:26:26.575Z,53.88
2022-12-12T01:28:53.779Z,54.89
2022-12-12T01:31:21.328Z,56.38
2022-12-12T01:33:49.931Z,56.48
2022-12-12T01:36:18.636Z,56.43
2022-12-12T01:38:46.313Z,57.16
2022-12-12T01:41:13.955Z,56.24
2022-12-12T01:43:41.961Z,57.40
2022-12-12T01:46:27.765Z,55.14
2022-12-12T01:48:56.900Z,55.38
2022-12-12T01:51:24.417Z,58.34
2022-12-12T01:53:52.166Z,56.00
2022-12-12T01:56:19.778Z,57.53
2022-12-12T01:58:47.969Z,57.00
2022-12-12T02:01:15.305Z,59.47
2022-12-12T02:03:42.728Z,58.77
2022-12-12T02:06:11.090Z,58.94
2022-12-12T02:08:38.303Z,60.57
2022-12-12T02:11:06.132Z,61.81
2022-12-12T02:13:33.452Z,59.92
2022-12-12T02:16:19.531Z,58.77
2022-12-12T02:18:55.850Z,57.40
2022-12-12T02:21:25.866Z,56.12
2022-12-12T02:24:02.602Z,57.04
2022-12-12T02:26:49.075Z,59.69
2022-12-12T02:29:35.383Z,57.87
2022-12-12T02:32:22.738Z,56.31
2022-12-12T02:34:51.608Z,56.35
2022-12-12T02:37:24.911Z,55.01
2022-12-12T02:39:58.394Z,56.44
2022-12-12T02:42:30.042Z,57.31
2022-12-12T02:44:59.708Z,56.39
2022-12-12T02:47:28.669Z,57.59
2022-12-12T02:50:01.061Z,58.70
2022-12-12T02:52:28.711Z,59.12
2022-12-12T02:54:55.940Z,57.80
2022-12-12T02:57:25.142Z,56.53
2022-12-12T02:59:54.635Z,55.99
2022-12-12T03:03:19.110Z,55.30
2022-12-12T03:06:05.004Z,56.06
2022-12-12T03:08:34.957Z,56.01
2022-12-12T03:11:09.276Z,56.65
2022-12-12T03:13:46.218Z,54.08
2022-12-12T03:16:26.236Z,54.76
2022-12-12T03:18:53.606Z,55.91
2022-12-12T03:21:21.218Z,56.86
2022-12-12T03:23:50.073Z,55.38
2022-12-12T03:26:18.931Z,55.47
2022-12-12T03:28:47.700Z,53.67
2022-12-12T03:31:15.232Z,53.30
2022-12-12T03:33:47.449Z,53.50
2022-12-12T03:36:25.266Z,52.88
2022-12-12T03:39:00.198Z,53.61
2022-12-12T03:41:31.948Z,50.30
2022-12-12T03:44:04.139Z,52.94
2022-12-12T03:46:32.863Z,51.89
2022-12-12T03:49:29.495Z,51.11
2022-12-12T03:52:15.686Z,49.45
2022-12-12T03:55:02.469Z,50.41
2022-12-12T03:57:34.980Z,51.00
2022-12-12T04:00:04.105Z,51.26
2022-12-12T04:02:41.491Z,50.92
2022-12-12T04:05:09.083Z,49.21
2022-12-12T04:07:40.881Z,49.33
2022-12-12T04:10:26.718Z,49.60
2022-12-12T04:13:03.632Z,48.40
2022-12-12T04:15:40.241Z,47.03
2022-12-12T04:18:13.755Z,46.69
2022-12-12T04:21:16.119Z,46.01
2022-12-12T04:23:55.855Z,47.11
2022-12-12T04:26:55.334Z,45.85
2022-12-12T04:29:34.912Z,49.55
2022-12-12T04:32:21.989Z,46.45
2022-12-12T04:35:10.420Z,49.49
2022-12-12T04:37:38.684Z,49.09
2022-12-12T04:40:06.935Z,48.37
2022-12-12T04:42:34.887Z,47.24
2022-12-12T04:45:06.423Z,44.90
2022-12-12T04:47:33.961Z,45.42
2022-12-12T04:50:01.200Z,45.83
2022-12-12T04:52:28.330Z,45.67
2022-12-12T04:54:58.873Z,46.16
2022-12-12T04:57:27.297Z,46.51
2022-12-12T04:59:54.427Z,46.38
2022-12-12T05:02:28.631Z,44.30
2022-12-12T05:04:59.377Z,42.43
2022-12-12T05:07:43.473Z,42.77
2022-12-12T05:10:14.992Z,43.89
2022-12-12T05:12:43.443Z,43.74
2022-12-12T05:15:10.842Z,45.38
2022-12-12T05:17:48.557Z,46.85
2022-12-12T05:20:16.002Z,45.52
2022-12-12T05:22:43.141Z,45.45
2022-12-12T05:25:10.675Z,46.54
2022-12-12T05:27:38.249Z,43.69
2022-12-12T05:30:05.735Z,44.52
2022-12-12T05:32:32.860Z,43.41
2022-12-12T05:35:00.264Z,43.34
2022-12-12T05:37:27.702Z,44.36
2022-12-12T05:39:54.829Z,48.66
2022-12-12T05:42:22.237Z,45.03
2022-12-12T05:44:49.445Z,46.20
2022-12-12T05:47:16.567Z,48.72
2022-12-12T05:49:44.019Z,46.25
2022-12-12T05:52:11.188Z,44.94
2022-12-12T05:54:40.363Z,46.56
2022-12-12T05:57:07.859Z,45.98
2022-12-12T05:59:35.154Z,46.85
2022-12-12T06:02:02.672Z,47.46
2022-12-12T06:04:30.909Z,47.90
2022-12-12T06:06:58.649Z,47.15
2022-12-12T06:09:25.784Z,47.53
2022-12-12T06:11:53.791Z,44.36
2022-12-12T06:14:20.912Z,46.98
2022-12-12T06:16:49.516Z,46.73
2022-12-12T06:19:18.210Z,44.95
2022-12-12T06:21:45.440Z,42.81
2022-12-12T06:24:12.581Z,42.54
2022-12-12T06:26:40.168Z,41.37
2022-12-12T06:29:07.296Z,41.72
2022-12-12T06:31:34.486Z,40.59
2022-12-12T06:34:04.409Z,40.67
2022-12-12T06:36:31.546Z,42.30
2022-12-12T06:38:59.440Z,41.86
2022-12-12T06:41:27.731Z,40.40
2022-12-12T06:43:55.772Z,40.94
2022-12-12T06:46:23.948Z,40.28
2022-12-12T06:48:52.638Z,42.71
2022-12-12T06:51:20.737Z,42.58
2022-12-12T06:53:48.075Z,42.46
2022-12-12T06:56:16.578Z,40.98
2022-12-12T06:58:43.704Z,41.97
2022-12-12T07:01:11.315Z,43.02
2022-12-12T07:03:38.811Z,42.38
2022-12-12T07:06:06.234Z,45.82
2022-12-12T07:08:33.969Z,46.56
2022-12-12T07:11:05.015Z,45.15
2022-12-12T07:13:32.159Z,45.43
2022-12-12T07:16:00.359Z,45.98
2022-12-12T07:18:28.101Z,46.50
2022-12-12T07:20:55.433Z,44.48
2022-12-12T07:23:22.547Z,44.29
2022-12-12T07:25:49.958Z,45.68
2022-12-12T07:28:19.855Z,44.19
2022-12-12T07:30:47.137Z,46.81
2022-12-12T07:33:16.641Z,46.69
2022-12-12T07:35:43.857Z,45.46
2022-12-12T07:38:11.215Z,44.33
2022-12-12T07:40:38.612Z,44.99
2022-12-12T07:43:05.731Z,46.88
2022-12-12T07:45:32.849Z,47.28
2022-12-12T07:48:00.304Z,44.78
2022-12-12T07:50:27.453Z,45.12
2022-12-12T07:52:54.635Z,46.01
2022-12-12T07:55:22.101Z,43.53
2022-12-12T07:57:50.000Z,44.28
2022-12-12T08:00:17.558Z,45.58
2022-12-12T08:02:45.117Z,46.62
2022-12-12T08:05:12.499Z,45.87
2022-12-12T08:07:40.169Z,46.67
2022-12-12T08:10:07.875Z,45.00
2022-12-12T08:12:34.982Z,45.87
2022-12-12T08:15:02.107Z,45.83
2022-12-12T08:17:30.568Z,47.30
2022-12-12T08:19:57.767Z,48.54
2022-12-12T08:22:24.890Z,45.43
2022-12-12T08:24:52.267Z,46.23
2022-12-12T08:27:19.689Z,50.40
2022-12-12T08:29:46.840Z,48.00
2022-12-12T08:32:14.333Z,51.25
2022-12-12T08:34:41.495Z,49.36
2022-12-12T08:37:08.654Z,47.54
2022-12-12T08:39:36.892Z,48.84
2022-12-12T08:42:04.175Z,48.63
2022-12-12T08:44:31.308Z,48.10
2022-12-12T08:46:58.785Z,47.10
2022-12-12T08:49:25.946Z,46.73
2022-12-12T08:51:53.139Z,47.38
2022-12-12T08:54:20.626Z,49.65
2022-12-12T08:56:47.930Z,46.54
2022-12-12T08:59:15.316Z,46.95
2022-12-12T09:01:42.873Z,48.05
2022-12-12T09:04:10.092Z,48.78
2022-12-12T09:06:37.223Z,48.03
2022-12-12T09:09:05.658Z,48.94
2022-12-12T09:11:32.777Z,46.98
2022-12-12T09:13:59.932Z,48.36
2022-12-12T09:16:29.910Z,48.71
2022-12-12T09:18:57.152Z,48.81
2022-12-12T09:21:24.277Z,46.42
2022-12-12T09:23:51.702Z,45.87
2022-12-12T09:26:18.883Z,47.92
2022-12-12T09:28:45.997Z,49.63
2022-12-12T09:31:13.600Z,49.43
2022-12-12T09:33:40.895Z,47.12
2022-12-12T09:36:08.045Z,49.62
2022-12-12T09:38:35.553Z,48.56
2022-12-12T09:41:02.770Z,48.72
2022-12-12T09:43:31.275Z,48.97
2022-12-12T09:45:59.124Z,49.00
2022-12-12T09:48:45.177Z,49.67
2022-12-12T09:51:12.789Z,48.77
2022-12-12T09:53:40.447Z,49.16
2022-12-12T09:56:13.342Z,50.26
2022-12-12T09:58:55.258Z,50.63
2022-12-12T10:01:26.285Z,51.11
2022-12-12T10:03:59.919Z,49.64
2022-12-12T10:06:37.023Z,48.70
2022-12-12T10:09:17.856Z,49.20
2022-12-12T10:11:50.829Z,47.40
2022-12-12T10:14:19.418Z,46.62
2022-12-12T10:16:46.605Z,47.97
2022-12-12T10:19:21.012Z,46.62
2022-12-12T10:21:48.512Z,46.28
2022-12-12T10:24:24.239Z,46.44
2022-12-12T10:26:52.489Z,48.06
2022-12-12T10:29:20.798Z,47.68
2022-12-12T10:31:54.335Z,49.81
2022-12-12T10:34:22.364Z,45.81
2022-12-12T10:36:52.526Z,46.06
2022-12-12T10:39:22.408Z,44.19
2022-12-12T10:41:58.836Z,46.19
2022-12-12T10:44:45.645Z,47.00
2022-12-12T10:47:14.696Z,45.98
2022-12-12T10:49:42.192Z,45.68
2022-12-12T10:52:17.743Z,44.73
2022-12-12T10:54:46.769Z,45.18
2022-12-12T10:57:20.764Z,43.73
2022-12-12T10:59:49.770Z,45.27
2022-12-12T11:02:28.124Z,47.32
2022-12-12T11:05:11.197Z,45.09
2022-12-12T11:07:40.143Z,47.69
2022-12-12T11:10:18.985Z,47.20
2022-12-12T11:12:46.130Z,47.72
2022-12-12T11:15:14.979Z,48.11
2022-12-12T11:17:42.272Z,48.10
2022-12-12T11:20:14.496Z,46.83
2022-12-12T11:22:41.880Z,45.07
2022-12-12T11:25:21.042Z,46.59
2022-12-12T11:27:48.417Z,46.73
2022-12-12T11:30:28.310Z,47.53
2022-12-12T11:32:55.736Z,47.00
2022-12-12T11:35:33.382Z,45.99
2022-12-12T11:38:02.475Z,47.26
2022-12-12T11:40:30.578Z,48.16
2022-12-12T11:43:16.654Z,46.61
2022-12-12T11:45:44.759Z,48.21
2022-12-12T11:48:30.766Z,48.12
2022-12-12T11:50:58.186Z,48.71
2022-12-12T11:53:25.678Z,48.40
2022-12-12T11:55:56.239Z,47.54
2022-12-12T11:58:27.480Z,46.46
2022-12-12T12:00:54.554Z,46.15
2022-12-12T12:03:34.024Z,46.03
2022-12-12T12:06:19.993Z,45.11
2022-12-12T12:09:06.096Z,49.33
2022-12-12T12:11:38.054Z,49.59
2022-12-12T12:14:05.605Z,49.47
2022-12-12T12:16:32.712Z,50.34
2022-12-12T12:18:59.807Z,48.14
2022-12-12T12:21:45.642Z,47.54
2022-12-12T12:24:18.570Z,50.79
2022-12-12T12:26:55.638Z,50.81
2022-12-12T12:29:25.723Z,48.07
2022-12-12T12:31:56.952Z,50.73
2022-12-12T12:34:31.851Z,48.89
2022-12-12T12:37:18.025Z,49.46
2022-12-12T12:39:52.200Z,50.86
2022-12-12T12:42:25.119Z,51.94
2022-12-12T12:44:55.367Z,49.21
2022-12-12T12:47:28.992Z,52.74
2022-12-12T12:49:58.612Z,52.50
2022-12-12T12:52:36.665Z,48.98
2022-12-12T12:55:03.897Z,50.78
2022-12-12T12:57:35.185Z,50.13
2022-12-12T13:00:06.870Z,52.33
2022-12-12T13:02:34.550Z,51.42
2022-12-12T13:05:10.483Z,49.17
2022-12-12T13:07:52.565Z,51.67
2022-12-12T13:10:20.972Z,49.37
2022-12-12T13:12:51.752Z,48.94
2022-12-12T13:15:23.937Z,50.63
2022-12-12T13:18:01.608Z,48.44
2022-12-12T13:20:29.696Z,48.45
2022-12-12T13:23:04.534Z,47.93
2022-12-12T13:25:47.606Z,48.82
2022-12-12T13:28:16.017Z,49.21
2022-12-12T13:30:43.198Z,49.64
2022-12-12T13:33:33.623Z,47.28
2022-12-12T13:36:06.539Z,48.34
2022-12-12T13:38:33.747Z,48.85
2022-12-12T13:41:07.505Z,46.37
2022-12-12T13:43:38.112Z,47.56
2022-12-12T13:46:27.502Z,49.80
2022-12-12T13:49:04.082Z,47.00
2022-12-12T13:51:34.807Z,48.86
2022-12-12T13:54:12.783Z,47.72
2022-12-12T13:56:44.660Z,48.97
2022-12-12T13:59:25.139Z,48.60
2022-12-12T14:01:52.598Z,46.41
2022-12-12T14:04:27.366Z,45.37
2022-12-12T14:07:01.856Z,47.28
2022-12-12T14:09:47.055Z,46.14
2022-12-12T14:12:31.022Z,44.91
2022-12-12T14:15:00.614Z,46.13
2022-12-12T14:17:28.755Z,45.94
2022-12-12T14:19:56.445Z,44.61
2022-12-12T14:22:40.062Z,44.91
2022-12-12T14:25:08.377Z,44.45
2022-12-12T14:27:50.806Z,43.55
2022-12-12T14:30:18.806Z,43.80
2022-12-12T14:32:49.034Z,44.83
2022-12-12T14:35:25.425Z,44.50
2022-12-12T14:38:11.743Z,45.82
2022-12-12T14:40:39.550Z,45.59
2022-12-12T14:43:19.725Z,46.41
2022-12-12T14:45:49.414Z,44.68
2022-12-12T14:48:24.214Z,46.66
2022-12-12T14:50:59.417Z,45.40
2022-12-12T14:53:37.433Z,43.54
2022-12-12T14:56:07.797Z,43.45
2022-12-12T14:58:36.076Z,45.13
2022-12-12T15:01:04.211Z,44.55
2022-12-12T15:03:34.503Z,46.75
2022-12-12T15:06:34.458Z,46.71
2022-12-12T15:09:16.383Z,46.01
2022-12-12T15:11:44.004Z,43.59
2022-12-12T15:14:21.318Z,45.14
2022-12-12T15:16:50.568Z,45.26
2022-12-12T15:19:37.988Z,43.02
2022-12-12T15:22:16.230Z,43.44
2022-12-12T15:24:44.283Z,45.76
2022-12-12T15:27:14.819Z,43.46
2022-12-12T15:29:42.555Z,42.73
2022-12-12T15:32:14.153Z,45.21
2022-12-12T15:34:42.055Z,43.68
2022-12-12T15:37:10.116Z,43.88
2022-12-12T15:39:37.251Z,44.29
2022-12-12T15:42:05.097Z,46.81
2022-12-12T15:44:32.233Z,44.68
2022-12-12T15:46:59.475Z,43.60
2022-12-12T15:49:39.782Z,42.74
2022-12-12T15:52:26.636Z,45.45
2022-12-12T15:54:55.190Z,43.65
2022-12-12T15:57:23.685Z,43.94
2022-12-12T15:59:57.718Z,44.00
2022-12-12T16:02:26.143Z,46.07
2022-12-12T16:04:56.444Z,44.65
2022-12-12T16:07:23.683Z,46.97
2022-12-12T16:09:57.983Z,48.53
2022-12-12T16:12:44.251Z,47.39
2022-12-12T16:15:18.890Z,46.04
2022-12-12T16:17:59.599Z,45.81
2022-12-12T16:20:30.383Z,45.31
2022-12-12T16:23:08.774Z,46.20
2022-12-12T16:25:36.798Z,43.52
2022-12-12T16:28:07.091Z,46.57
2022-12-12T16:30:34.924Z,45.75
2022-12-12T16:33:11.982Z,48.13
2022-12-12T16:35:39.414Z,46.66
2022-12-12T16:38:12.245Z,49.98
2022-12-12T16:40:39.674Z,51.24
2022-12-12T16:43:11.353Z,47.15
2022-12-12T16:45:39.065Z,47.86
2022-12-12T16:48:16.864Z,46.59
2022-12-12T16:50:44.782Z,47.69
2022-12-12T16:53:12.241Z,47.15
2022-12-12T16:55:40.158Z,47.97
2022-12-12T16:58:07.547Z,47.15
2022-12-12T17:00:34.991Z,46.82
2022-12-12T17:03:02.255Z,45.53
2022-12-12T17:05:29.635Z,45.45
2022-12-12T17:07:57.044Z,43.57
2022-12-12T17:10:35.446Z,45.56
2022-12-12T17:13:05.816Z,46.04
2022-12-12T17:15:35.631Z,45.34
2022-12-12T17:18:04.266Z,44.22
2022-12-12T17:20:37.732Z,46.19
2022-12-12T17:25:51.083Z,43.57
2022-12-12T17:28:19.480Z,43.16
2022-12-12T17:30:47.867Z,44.65
2022-12-12T17:33:17.912Z,44.78
2022-12-12T17:35:46.244Z,45.36
2022-12-12T17:38:16.336Z,46.91
2022-12-12T17:40:43.919Z,43.81
2022-12-12T17:43:11.541Z,45.06
2022-12-12T17:45:39.099Z,45.35
2022-12-12T17:48:06.450Z,50.00
2022-12-12T17:50:39.900Z,49.54
2022-12-12T17:53:08.859Z,47.10
2022-12-12T17:55:51.850Z,48.63
2022-12-12T17:58:28.077Z,48.06
2022-12-12T18:00:57.483Z,45.93
2022-12-12T18:03:25.171Z,47.23
2022-12-12T18:05:53.252Z,49.44
2022-12-12T18:08:21.311Z,48.25
2022-12-12T18:10:48.930Z,46.38
2022-12-12T18:13:16.548Z,46.68
2022-12-12T18:15:44.666Z,46.07
2022-12-12T18:18:15.084Z,47.32
2022-12-12T18:20:42.552Z,48.34
2022-12-12T18:23:10.520Z,46.42
2022-12-12T18:25:38.547Z,48.46
2022-12-12T18:28:07.669Z,47.37
2022-12-12T18:30:35.403Z,46.04
2022-12-12T18:33:03.610Z,47.01
2022-12-12T18:35:31.398Z,44.25
2022-12-12T18:37:59.573Z,44.47
2022-12-12T18:40:27.625Z,46.44
2022-12-12T18:42:55.393Z,46.78
2022-12-12T18:45:24.247Z,44.42
2022-12-12T18:47:52.304Z,44.50
2022-12-12T18:50:21.536Z,45.06
2022-12-12T18:52:49.339Z,46.09
2022-12-12T18:55:18.928Z,45.16
2022-12-12T18:57:46.455Z,48.49
2022-12-12T19:00:15.054Z,47.29
2022-12-12T19:02:42.956Z,44.99
2022-12-12T19:05:13.840Z,50.04
2022-12-12T19:07:41.912Z,47.29
2022-12-12T19:10:10.206Z,46.45
2022-12-12T19:12:39.408Z,47.15
2022-12-12T19:15:19.825Z,48.14
2022-12-12T19:17:48.428Z,50.46
2022-12-12T19:20:17.071Z,47.60
2022-12-12T19:22:46.685Z,47.93
2022-12-12T19:25:16.560Z,50.18
2022-12-12T19:27:46.293Z,50.82
2022-12-12T19:30:15.021Z,49.89
2022-12-12T19:32:46.178Z,47.97
2022-12-12T19:35:14.424Z,51.19
2022-12-12T19:37:44.499Z,49.37
2022-12-12T19:40:12.905Z,46.48
2022-12-12T19:42:40.563Z,49.24
2022-12-12T19:45:08.839Z,48.45
2022-12-12T19:47:36.938Z,48.35
2022-12-12T19:50:05.388Z,47.08
2022-12-12T19:52:33.428Z,46.68
2022-12-12T19:55:02.499Z,47.41
2022-12-12T19:57:31.879Z,47.70
2022-12-12T19:59:59.560Z,50.05
2022-12-12T20:02:27.820Z,51.11
2022-12-12T20:04:59.125Z,50.32
2022-12-12T20:07:27.090Z,48.44
2022-12-12T20:09:54.751Z,46.95
2022-12-12T20:12:23.224Z,47.11
2022-12-12T20:14:51.292Z,47.63
2022-12-12T20:17:19.745Z,47.00
2022-12-12T20:19:51.060Z,47.41
2022-12-12T20:22:18.557Z,48.00
2022-12-12T20:24:47.530Z,49.81
2022-12-12T20:27:15.938Z,49.48
2022-12-12T20:29:45.915Z,48.13
2022-12-12T20:32:14.469Z,51.85
2022-12-12T20:34:42.675Z,51.42
2022-12-12T20:37:13.059Z,50.82
2022-12-12T20:39:45.398Z,48.20
2022-12-12T20:42:14.604Z,49.27
2022-12-12T20:44:42.300Z,48.79
2022-12-12T20:47:14.375Z,48.24
2022-12-12T20:49:42.494Z,47.86
2022-12-12T20:52:10.527Z,49.17
2022-12-12T20:54:39.367Z,45.99
2022-12-12T20:57:07.620Z,50.33
2022-12-12T20:59:36.407Z,50.93
2022-12-12T21:02:04.029Z,49.37
2022-12-12T21:04:32.247Z,50.40
2022-12-12T21:07:01.143Z,51.67
2022-12-12T21:09:28.461Z,50.94
2022-12-12T21:11:56.405Z,50.71
2022-12-12T21:14:25.363Z,49.61
2022-12-12T21:16:52.571Z,48.11
2022-12-12T21:19:23.168Z,47.97
2022-12-12T21:21:51.186Z,46.87
2022-12-12T21:24:18.557Z,49.25
2022-12-12T21:26:46.743Z,49.65
2022-12-12T21:29:14.231Z,47.93
2022-12-12T21:31:48.269Z,50.90
2022-12-12T21:34:17.901Z,49.79
2022-12-12T21:36:45.124Z,51.16
2022-12-12T21:39:12.676Z,49.73
2022-12-12T21:41:42.092Z,48.59
2022-12-12T21:44:09.453Z,51.72
2022-12-12T21:46:37.196Z,53.78
2022-12-12T21:49:19.825Z,51.42
2022-12-12T21:51:47.804Z,52.23
2022-12-12T21:54:15.291Z,54.86
2022-12-12T21:56:42.658Z,54.16
2022-12-12T21:59:10.415Z,52.56
2022-12-12T22:01:37.973Z,52.04
2022-12-12T22:04:05.539Z,52.11
2022-12-12T22:06:33.762Z,53.24
2022-12-12T22:09:01.457Z,54.23
2022-12-12T22:11:41.879Z,53.43
2022-12-12T22:14:17.488Z,54.42
2022-12-12T22:16:45.036Z,53.32
2022-12-12T22:19:12.898Z,54.37
2022-12-12T22:21:40.017Z,54.71
2022-12-12T22:24:07.630Z,54.64
2022-12-12T22:26:38.292Z,55.50
2022-12-12T22:29:06.386Z,56.08
2022-12-12T22:31:34.966Z,53.81
2022-12-12T22:34:02.848Z,54.91
2022-12-12T22:36:30.927Z,55.08
2022-12-12T22:38:58.462Z,54.33
2022-12-12T22:41:26.308Z,55.00
2022-12-12T22:43:54.972Z,53.95
2022-12-12T22:46:23.118Z,56.95
2022-12-12T22:48:50.336Z,57.18
2022-12-12T22:51:22.345Z,56.73
2022-12-12T22:53:49.836Z,57.61
2022-12-12T22:56:16.985Z,54.27
2022-12-12T22:58:44.157Z,53.39
2022-12-12T23:01:13.217Z,55.36
2022-12-12T23:03:40.357Z,53.14
2022-12-12T23:06:11.924Z,54.98
2022-12-12T23:08:39.750Z,56.01
2022-12-12T23:11:11.277Z,56.37
2022-12-12T23:13:39.270Z,55.56
2022-12-12T23:16:07.609Z,55.78
2022-12-12T23:18:35.803Z,56.91
2022-12-12T23:21:05.202Z,56.98
2022-12-12T23:23:34.228Z,54.60
2022-12-12T23:26:32.813Z,54.07
2022-12-12T23:29:00.326Z,55.13
2022-12-12T23:31:28.740Z,56.10
2022-12-12T23:33:56.936Z,54.93
2022-12-12T23:36:24.350Z,52.65
2022-12-12T23:38:58.092Z,55.81
2022-12-12T23:41:25.675Z,53.79
2022-12-12T23:43:53.062Z,52.99
2022-12-12T23:46:29.618Z,55.34
2022-12-12T23:49:07.095Z,53.73
2022-12-12T23:51:40.330Z,51.31
2022-12-12T23:54:09.678Z,52.94
2022-12-12T23:56:36.925Z,54.97
2022-12-12T23:59:04.122Z,52.48
